Time;durP1;ratioP1;P1;durP2;ratioP2;P2;SDS_P1;SDS_P2;PMS_P1;PMS_P2;Temp;Humidity;BMP_temperature;BMP_pressure;BME280_temperature;BME280_humidity;BME280_pressure;Samples;Min_cycle;Max_cycle;Signal;HPM_P1;HPM_P2
2022/12/25 00:01:21;;;;;;;;;;;;;;;9.10;100.00;100113.50;4913362;29;19923;-84
2022/12/25 00:03:48;;;;;;;;;;;;;;;9.15;100.00;100124.56;4916524;29;19923;-83
2022/12/25 00:06:15;;;;;;;;;;;;;;;9.15;100.00;100121.94;4893185;29;19987;-84
2022/12/25 00:08:41;;;;;;;;;;;;;;;9.18;100.00;100115.53;4898852;29;20061;-84
2022/12/25 00:11:10;;;;;;;;;;;;;;;9.18;99.75;100115.53;4887245;29;19927;-83
2022/12/25 00:13:36;;;;;;;;;;;;;;;9.04;100.00;100128.06;4874153;29;20525;-84
2022/12/25 00:16:12;;;;;;;;;;;;;;;8.97;100.00;100121.53;4870951;29;20378;-84
2022/12/25 00:18:38;;;;;;;;;;;;;;;9.01;99.57;100128.31;4918291;28;19927;-84
2022/12/25 00:21:05;;;;;;;;;;;;;;;9.03;99.69;100134.34;4901041;29;20010;-84
2022/12/25 00:23:32;;;;;;;;;;;;;;;8.97;99.92;100137.44;4886540;29;19954;-84
2022/12/25 00:26:02;;;;;;;;;;;;;;;9.01;100.00;100141.56;4915997;29;19930;-84
2022/12/25 00:28:28;;;;;;;;;;;;;;;9.00;100.00;100134.53;4885707;29;19930;-84
2022/12/25 00:30:55;;;;;;;;;;;;;;;8.99;100.00;100127.56;4890081;29;19923;-84
2022/12/25 00:33:23;;;;;;;;;;;;;;;8.96;100.00;100119.88;4917689;29;19922;-84
2022/12/25 00:35:59;;;;;;;;;;;;;;;8.99;100.00;100116.97;4917432;29;19923;-83
2022/12/25 00:38:26;;;;;;;;;;;;;;;9.03;100.00;100114.94;4871961;29;20267;-84
2022/12/25 00:40:53;;;;;;;;;;;;;;;9.05;100.00;100108.53;4869932;29;20374;-84
2022/12/25 00:43:20;;;;;;;;;;;;;;;9.06;100.00;100120.00;4881873;29;19979;-84
2022/12/25 00:45:56;;;;;;;;;;;;;;;9.11;100.00;100115.19;4898964;29;19974;-84
2022/12/25 00:48:23;;;;;;;;;;;;;;;9.07;100.00;100117.22;4900748;29;19931;-84
2022/12/25 00:50:53;;;;;;;;;;;;;;;9.06;100.00;100112.06;4886590;29;19930;-84
2022/12/25 00:53:20;;;;;;;;;;;;;;;9.07;100.00;100113.75;4902464;29;19946;-83
2022/12/25 00:55:52;;;;;;;;;;;;;;;9.05;100.00;100108.53;4916706;29;19931;-84
2022/12/25 00:58:19;;;;;;;;;;;;;;;9.10;100.00;100116.13;4887164;29;20275;-83
2022/12/25 01:00:46;;;;;;;;;;;;;;;9.03;100.00;100115.78;4884960;29;19929;-84
2022/12/25 01:03:13;;;;;;;;;;;;;;;9.01;100.00;100119.53;4886542;29;19923;-83
2022/12/25 01:05:40;;;;;;;;;;;;;;;9.02;100.00;100123.84;4901619;29;19926;-83
2022/12/25 01:08:06;;;;;;;;;;;;;;;8.93;100.00;100116.59;4889655;29;20352;-83
2022/12/25 01:10:34;;;;;;;;;;;;;;;9.02;100.00;100123.84;4902532;29;20331;-83
2022/12/25 01:13:00;;;;;;;;;;;;;;;9.06;100.00;100117.38;4900489;29;19923;-84
2022/12/25 01:15:27;;;;;;;;;;;;;;;9.03;100.00;100123.75;4886819;29;19927;-83
2022/12/25 01:17:53;;;;;;;;;;;;;;;9.04;100.00;100121.94;4882886;29;19923;-83
2022/12/25 01:20:20;;;;;;;;;;;;;;;9.07;100.00;100129.63;4904270;28;19931;-83
2022/12/25 01:22:46;;;;;;;;;;;;;;;9.00;100.00;100136.34;4918421;29;19989;-83
2022/12/25 01:25:13;;;;;;;;;;;;;;;8.97;100.00;100128.66;4885698;29;20378;-83
2022/12/25 01:27:40;;;;;;;;;;;;;;;8.98;100.00;100139.16;4900161;29;19954;-83
2022/12/25 01:30:06;;;;;;;;;;;;;;;8.97;100.00;100150.69;4900275;29;20037;-83
2022/12/25 01:32:33;;;;;;;;;;;;;;;8.97;100.00;100150.69;4885970;29;19931;-83
2022/12/25 01:34:59;;;;;;;;;;;;;;;8.98;100.00;100155.03;4884229;29;20029;-83
2022/12/25 01:37:26;;;;;;;;;;;;;;;8.90;100.00;100158.28;4898735;29;21759;-83
2022/12/25 01:39:53;;;;;;;;;;;;;;;8.94;100.00;100161.53;4899616;29;21482;-83
2022/12/25 01:42:20;;;;;;;;;;;;;;;8.96;100.00;100166.72;4870078;29;20071;-83
2022/12/25 01:44:47;;;;;;;;;;;;;;;8.94;100.00;100161.53;4917716;28;19930;-83
2022/12/25 01:47:14;;;;;;;;;;;;;;;8.97;100.00;100166.56;4903298;29;19953;-82
2022/12/25 01:49:41;;;;;;;;;;;;;;;8.96;100.00;100169.34;4885682;29;20266;-83
2022/12/25 01:52:09;;;;;;;;;;;;;;;8.90;100.00;100171.50;4902724;29;19931;-83
2022/12/25 01:54:37;;;;;;;;;;;;;;;8.84;100.00;100168.47;4889707;29;19922;-83
2022/12/25 01:57:06;;;;;;;;;;;;;;;8.91;100.00;100165.25;4890044;29;19934;-83
2022/12/25 01:59:32;;;;;;;;;;;;;;;8.97;100.00;100165.75;4889515;29;19939;-83
2022/12/25 02:01:59;;;;;;;;;;;;;;;8.97;100.00;100169.22;4919324;28;19927;-83
2022/12/25 02:04:38;;;;;;;;;;;;;;;9.00;100.00;100168.16;4890129;29;19938;-83
2022/12/25 02:07:25;;;;;;;;;;;;;;;9.01;100.00;100159.25;4873882;29;20379;-83
2022/12/25 02:09:52;;;;;;;;;;;;;;;8.95;100.00;100171.13;4903102;29;19931;-83
2022/12/25 02:12:20;;;;;;;;;;;;;;;8.90;100.00;100158.28;4889783;29;19930;-83
2022/12/25 02:14:47;;;;;;;;;;;;;;;8.90;100.00;100154.75;4890277;29;19931;-83
2022/12/25 02:17:19;;;;;;;;;;;;;;;8.95;100.00;100159.72;4890496;29;19923;-83
2022/12/25 02:20:00;;;;;;;;;;;;;;;8.93;100.00;100145.72;4907636;29;19927;-83
2022/12/25 02:22:32;;;;;;;;;;;;;;;8.97;100.00;100144.53;4831711;29;19923;-84
2022/12/25 02:25:10;;;;;;;;;;;;;;;8.98;100.00;100140.94;4892241;29;19938;-83
2022/12/25 02:27:55;;;;;;;;;;;;;;;9.02;100.00;100137.09;4891070;29;20635;-83
2022/12/25 02:30:22;;;;;;;;;;;;;;;9.01;100.00;100138.91;4898760;29;20374;-83
2022/12/25 02:34:01;;;;;;;;;;;;;;;8.98;100.00;100127.69;4905533;29;20108;-83
2022/12/25 02:35:46;;;;;;;;;;;;;;;8.98;100.00;100128.56;4861842;29;20053;-83
2022/12/25 02:38:15;;;;;;;;;;;;;;;8.94;100.00;100113.84;4902059;29;19986;-83
2022/12/25 02:40:42;;;;;;;;;;;;;;;8.94;100.00;100113.00;4890124;29;19923;-83
2022/12/25 03:08:39;;;;;;;;;;;;;;;8.91;100.00;100084.97;4813733;29;19926;-83
2022/12/25 03:13:53;;;;;;;;;;;;;;;8.80;100.00;100069.03;4868002;29;20376;-83
2022/12/25 03:26:53;;;;;;;;;;;;;;;8.78;100.00;100061.22;4863182;29;20442;-84
2022/12/25 03:27:23;;;;;;;;;;;;;;;8.76;100.00;100068.44;4898928;29;20291;-83
2022/12/25 03:32:39;;;;;;;;;;;;;;;8.76;100.00;100049.06;4862583;29;19931;-83
2022/12/25 03:35:24;;;;;;;;;;;;;;;8.77;100.00;100054.22;4889612;29;19923;-83
2022/12/25 04:36:08;;;;;;;;;;;;;;;8.36;100.00;100036.22;4914365;29;20071;-83
2022/12/25 04:38:34;;;;;;;;;;;;;;;8.29;100.00;100030.53;4867549;29;19949;-83
2022/12/25 04:41:01;;;;;;;;;;;;;;;8.28;100.00;100039.44;4917073;29;19930;-83
2022/12/25 04:43:28;;;;;;;;;;;;;;;8.26;100.00;100046.63;4900899;29;20383;-83
2022/12/25 04:45:55;;;;;;;;;;;;;;;8.23;100.00;100047.72;4902602;29;19931;-83
2022/12/25 04:48:21;;;;;;;;;;;;;;;8.24;100.00;100054.72;4898721;29;20021;-83
2022/12/25 04:50:48;;;;;;;;;;;;;;;8.17;100.00;100047.34;4901773;29;19923;-83
2022/12/25 04:53:15;;;;;;;;;;;;;;;8.16;100.00;100048.28;4886136;29;19998;-83
2022/12/25 04:55:41;;;;;;;;;;;;;;;8.19;100.00;100059.50;4870149;29;19935;-83
2022/12/25 04:58:08;;;;;;;;;;;;;;;8.19;100.00;100059.50;4881304;29;20002;-83
2022/12/25 05:00:34;;;;;;;;;;;;;;;8.22;100.00;100048.69;4882798;29;20295;-83
2022/12/25 05:03:01;;;;;;;;;;;;;;;8.15;100.00;100052.75;4886439;29;19978;-83
2022/12/25 05:05:28;;;;;;;;;;;;;;;8.17;100.00;100045.53;4871737;29;19927;-84
2022/12/25 05:07:55;;;;;;;;;;;;;;;8.15;100.00;100041.31;4882329;29;20391;-84
2022/12/25 05:10:21;;;;;;;;;;;;;;;8.13;100.00;100041.44;4901845;29;20002;-84
2022/12/25 05:12:48;;;;;;;;;;;;;;;8.08;100.00;100037.44;4889363;29;19927;-83
2022/12/25 05:15:15;;;;;;;;;;;;;;;8.07;100.00;100031.31;4887093;29;19927;-83
2022/12/25 05:17:41;;;;;;;;;;;;;;;8.12;99.98;100036.28;4882002;29;19959;-84
2022/12/25 05:20:08;;;;;;;;;;;;;;;8.07;100.00;100033.13;4900894;29;19923;-83
2022/12/25 05:22:34;;;;;;;;;;;;;;;8.09;100.00;100034.69;4900098;29;20389;-84
2022/12/25 05:25:01;;;;;;;;;;;;;;;8.09;100.00;100033.84;4902426;29;19939;-84
2022/12/25 05:27:27;;;;;;;;;;;;;;;8.11;100.00;100032.75;4870774;29;19930;-83
2022/12/25 05:29:54;;;;;;;;;;;;;;;8.04;100.00;100028.91;4871291;29;19974;-83
2022/12/25 05:32:20;;;;;;;;;;;;;;;7.98;100.00;100035.47;4899558;29;20371;-84
2022/12/25 05:34:47;;;;;;;;;;;;;;;8.04;100.00;100032.41;4902605;29;19957;-84
2022/12/25 05:37:13;;;;;;;;;;;;;;;8.02;100.00;100034.31;4892997;28;20014;-83
2022/12/25 05:39:40;;;;;;;;;;;;;;;8.08;100.00;100030.34;4900121;29;19967;-84
2022/12/25 05:42:07;;;;;;;;;;;;;;;8.08;100.00;100026.88;4871747;29;19927;-84
2022/12/25 05:44:33;;;;;;;;;;;;;;;8.21;100.00;100025.81;4898749;29;20529;-83
2022/12/25 05:47:00;;;;;;;;;;;;;;;8.19;100.00;100018.97;4915259;29;20422;-84
2022/12/25 05:49:26;;;;;;;;;;;;;;;8.21;99.39;100011.75;4884321;29;19986;-84
2022/12/25 05:51:53;;;;;;;;;;;;;;;8.21;99.33;100004.66;4873184;29;19923;-83
2022/12/25 05:54:20;;;;;;;;;;;;;;;8.27;99.40;100001.56;4902343;29;20302;-84
2022/12/25 05:56:46;;;;;;;;;;;;;;;8.23;98.63;100002.75;4871898;29;20480;-84
2022/12/25 05:59:13;;;;;;;;;;;;;;;8.23;99.18;100008.03;4884689;29;20397;-83
2022/12/25 06:01:39;;;;;;;;;;;;;;;8.26;99.07;100006.97;4901555;29;19923;-84
2022/12/25 06:04:06;;;;;;;;;;;;;;;8.19;99.04;100003.94;4885265;29;19969;-84
2022/12/25 06:06:38;;;;;;;;;;;;;;;8.17;98.64;100002.38;4870423;29;19930;-83
2022/12/25 06:09:05;;;;;;;;;;;;;;;8.22;98.25;100003.72;4885621;29;19927;-83
2022/12/25 06:11:32;;;;;;;;;;;;;;;8.23;98.32;100004.56;4885650;29;19927;-83
2022/12/25 06:13:58;;;;;;;;;;;;;;;8.27;98.13;99998.91;4884426;29;19923;-84
2022/12/25 06:16:25;;;;;;;;;;;;;;;8.27;98.08;100006.84;4886328;29;20397;-83
2022/12/25 06:18:51;;;;;;;;;;;;;;;8.18;98.37;100002.25;4912266;28;20563;-83
2022/12/25 06:21:18;;;;;;;;;;;;;;;8.16;97.96;100017.38;4868182;29;19985;-82
2022/12/25 06:23:45;;;;;;;;;;;;;;;8.20;97.93;100010.09;4886630;29;19931;-84
2022/12/25 06:26:15;;;;;;;;;;;;;;;8.19;98.00;100018.97;4868723;29;20386;-83
2022/12/25 06:28:42;;;;;;;;;;;;;;;8.20;98.29;100020.66;4886543;29;19930;-83
2022/12/25 06:31:09;;;;;;;;;;;;;;;8.21;98.30;100019.69;4886413;29;20379;-84
2022/12/25 06:33:36;;;;;;;;;;;;;;;8.19;98.68;100029.53;4898618;29;19931;-83
2022/12/25 06:36:09;;;;;;;;;;;;;;;8.24;98.95;100030.91;4870633;29;19927;-83
2022/12/25 06:38:36;;;;;;;;;;;;;;;8.20;98.28;100024.16;4902074;29;20298;-83
2022/12/25 06:41:09;;;;;;;;;;;;;;;8.21;97.81;100020.53;4892569;29;19982;-83
2022/12/25 06:43:36;;;;;;;;;;;;;;;8.17;96.98;100015.59;4902626;29;19931;-83
2022/12/25 06:46:06;;;;;;;;;;;;;;;8.14;97.75;100023.75;4906952;29;20347;-83
2022/12/25 06:48:33;;;;;;;;;;;;;;;8.03;98.30;100017.47;4902461;29;19962;-84
2022/12/25 06:51:00;;;;;;;;;;;;;;;8.12;97.78;100023.88;4920254;29;20437;-83
2022/12/25 06:53:27;;;;;;;;;;;;;;;8.28;98.03;100026.22;4903219;29;20005;-83
2022/12/25 06:56:06;;;;;;;;;;;;;;;8.28;98.94;100034.16;4872844;29;20255;-83
2022/12/25 06:58:32;;;;;;;;;;;;;;;8.31;98.83;100025.13;4886996;29;19934;-83
2022/12/25 07:00:59;;;;;;;;;;;;;;;8.26;98.20;100020.19;4876915;29;19934;-83
2022/12/25 07:03:26;;;;;;;;;;;;;;;8.32;97.76;100017.09;4919282;28;19949;-83
2022/12/25 07:05:52;;;;;;;;;;;;;;;8.19;97.48;100014.53;4919619;29;20271;-83
2022/12/25 07:08:19;;;;;;;;;;;;;;;8.17;98.52;100010.31;4891268;29;19975;-83
2022/12/25 07:10:45;;;;;;;;;;;;;;;8.20;98.86;100016.22;4903792;29;20588;-83
2022/12/25 07:13:12;;;;;;;;;;;;;;;8.20;98.58;100020.66;4890949;29;19931;-83
2022/12/25 07:15:38;;;;;;;;;;;;;;;8.24;98.54;100017.69;4888792;29;19923;-84
2022/12/25 07:18:05;;;;;;;;;;;;;;;8.24;98.82;100025.63;4887648;29;19923;-83
2022/12/25 07:20:31;;;;;;;;;;;;;;;8.20;99.59;100020.66;4874792;29;19931;-84
2022/12/25 07:22:58;;;;;;;;;;;;;;;8.24;99.32;100027.38;4872758;29;19934;-84
2022/12/25 07:25:24;;;;;;;;;;;;;;;8.23;99.27;100020.41;4916721;29;19923;-83
2022/12/25 07:27:51;;;;;;;;;;;;;;;8.25;99.67;100014.06;4908071;29;19973;-83
2022/12/25 07:30:18;;;;;;;;;;;;;;;8.27;99.69;100008.66;4890543;29;20371;-83
2022/12/25 07:32:44;;;;;;;;;;;;;;;8.30;99.43;100007.59;4919061;29;19923;-83
2022/12/25 07:35:15;;;;;;;;;;;;;;;8.26;99.60;100007.78;4889031;29;20705;-83
2022/12/25 07:37:42;;;;;;;;;;;;;;;8.31;99.34;100002.16;4871777;29;19927;-83
2022/12/25 07:40:09;;;;;;;;;;;;;;;8.18;99.67;99989.03;4898885;29;19927;-83
2022/12/25 07:42:35;;;;;;;;;;;;;;;8.19;99.73;99985.44;4888047;29;20006;-83
2022/12/25 07:45:02;;;;;;;;;;;;;;;8.14;99.77;99976.16;4885531;29;19926;-83
2022/12/25 07:47:29;;;;;;;;;;;;;;;8.18;99.40;99967.03;4902175;29;19927;-83
2022/12/25 07:49:55;;;;;;;;;;;;;;;8.14;99.39;99966.44;4918739;28;19923;-83
2022/12/25 07:52:22;;;;;;;;;;;;;;;8.13;99.79;99969.19;4888148;29;19928;-84
2022/12/25 07:54:48;;;;;;;;;;;;;;;8.10;99.79;99974.72;4871455;29;19931;-83
2022/12/25 07:57:15;;;;;;;;;;;;;;;8.15;99.53;99975.19;4873032;29;19979;-83
2022/12/25 07:59:41;;;;;;;;;;;;;;;8.12;99.95;99965.69;4884591;29;19935;-84
2022/12/25 08:02:09;;;;;;;;;;;;;;;8.10;100.00;99972.91;4874896;29;20511;-84
2022/12/25 08:04:35;;;;;;;;;;;;;;;8.12;99.86;99978.09;4887709;29;19930;-83
2022/12/25 08:07:02;;;;;;;;;;;;;;;8.09;100.00;99979.16;4900865;29;19932;-83
2022/12/25 08:09:28;;;;;;;;;;;;;;;8.18;100.00;99978.44;4900572;29;20343;-84
2022/12/25 08:11:55;;;;;;;;;;;;;;;8.16;100.00;99988.28;4917671;29;19923;-84
2022/12/25 08:14:22;;;;;;;;;;;;;;;8.14;100.00;100003.47;4903403;29;20006;-84
2022/12/25 08:16:48;;;;;;;;;;;;;;;8.18;100.00;100004.06;4917763;29;19939;-83
2022/12/25 08:19:15;;;;;;;;;;;;;;;8.14;100.00;100006.09;4870705;29;19930;-83
2022/12/25 08:21:42;;;;;;;;;;;;;;;8.14;100.00;99998.16;4916372;29;19923;-84
2022/12/25 08:24:09;;;;;;;;;;;;;;;8.19;100.00;99995.16;4887691;29;19938;-83
2022/12/25 08:26:36;;;;;;;;;;;;;;;8.15;100.00;99997.19;4901292;29;20363;-83
2022/12/25 08:29:02;;;;;;;;;;;;;;;8.24;100.00;100008.88;4898790;29;19923;-83
2022/12/25 08:31:29;;;;;;;;;;;;;;;8.23;100.00;100007.19;4884604;29;19927;-83
2022/12/25 08:33:56;;;;;;;;;;;;;;;8.22;100.00;100014.28;4887030;29;19931;-84
2022/12/25 08:36:23;;;;;;;;;;;;;;;8.28;99.25;100012.97;4869816;29;19962;-83
2022/12/25 08:38:49;;;;;;;;;;;;;;;8.19;99.47;100005.72;4884169;29;19990;-83
2022/12/25 08:41:16;;;;;;;;;;;;;;;8.19;99.59;100003.09;4886866;29;19931;-83
2022/12/25 08:43:42;;;;;;;;;;;;;;;8.24;100.00;100000.94;4891340;29;19930;-84
2022/12/25 08:46:09;;;;;;;;;;;;;;;8.23;100.00;100004.56;4888685;29;19940;-84
2022/12/25 08:48:36;;;;;;;;;;;;;;;8.20;100.00;100002.16;4884157;29;20446;-84
2022/12/25 08:51:03;;;;;;;;;;;;;;;8.25;100.00;99992.91;4889362;29;20350;-84
2022/12/25 08:53:29;;;;;;;;;;;;;;;8.32;100.00;100001.22;4888754;29;19922;-84
2022/12/25 08:55:57;;;;;;;;;;;;;;;8.40;100.00;100004.16;4886186;29;20834;-84
2022/12/25 08:58:23;;;;;;;;;;;;;;;8.39;100.00;99985.69;4886255;29;19931;-84
2022/12/25 09:00:50;;;;;;;;;;;;;;;8.43;100.00;99974.78;4886579;29;19926;-84
2022/12/25 09:03:17;;;;;;;;;;;;;;;8.43;99.75;99968.66;4886497;29;19923;-84
2022/12/25 09:05:43;;;;;;;;;;;;;;;8.52;99.63;99956.50;4902871;29;20438;-84
2022/12/25 09:08:10;;;;;;;;;;;;;;;8.56;100.00;99937.63;4915760;29;20063;-84
2022/12/25 09:10:37;;;;;;;;;;;;;;;8.58;100.00;99927.78;4870865;29;19975;-84
2022/12/25 09:13:03;;;;;;;;;;;;;;;8.61;100.00;99924.88;4916682;29;19931;-84
2022/12/25 09:15:30;;;;;;;;;;;;;;;8.66;100.00;99920.06;4904522;29;19934;-84
2022/12/25 09:17:57;;;;;;;;;;;;;;;8.77;100.00;99915.72;4905541;29;19931;-84
2022/12/25 09:20:23;;;;;;;;;;;;;;;8.79;100.00;99913.78;4887569;29;19946;-84
2022/12/25 09:22:50;;;;;;;;;;;;;;;8.79;100.00;99911.97;4871710;29;20387;-84
2022/12/25 09:25:16;;;;;;;;;;;;;;;8.84;100.00;99917.75;4886854;29;19923;-85
2022/12/25 09:27:43;;;;;;;;;;;;;;;8.89;100.00;99917.41;4887029;29;19923;-84
2022/12/25 09:30:10;;;;;;;;;;;;;;;8.94;100.00;99927.63;4902673;29;20018;-84
2022/12/25 09:32:39;;;;;;;;;;;;;;;8.97;99.41;99935.31;4901623;29;19955;-85
2022/12/25 09:35:08;;;;;;;;;;;;;;;8.98;99.44;99932.56;4886135;29;20217;-86
2022/12/25 09:37:35;;;;;;;;;;;;;;;9.02;99.52;99947.22;4887133;29;20371;-86
2022/12/25 09:40:02;;;;;;;;;;;;;;;9.01;99.60;99950.84;4869380;29;19970;-87
2022/12/25 09:42:30;;;;;;;;;;;;;;;9.03;99.43;99958.66;4881007;28;19945;-86
2022/12/25 09:44:58;;;;;;;;;;;;;;;9.02;99.56;99964.91;4872283;29;19923;-85
2022/12/25 09:47:26;;;;;;;;;;;;;;;9.06;99.72;99961.91;4900505;29;19931;-86
2022/12/25 09:49:56;;;;;;;;;;;;;;;9.10;99.86;99970.44;4920373;28;19924;-86
2022/12/25 09:52:31;;;;;;;;;;;;;;;9.11;99.74;99972.97;4890217;29;19991;-86
2022/12/25 09:54:59;;;;;;;;;;;;;;;9.15;99.78;99968.25;4884609;29;19953;-85
2022/12/25 09:57:25;;;;;;;;;;;;;;;9.18;100.00;99957.41;4878566;29;19937;-86
2022/12/25 09:59:55;;;;;;;;;;;;;;;9.19;100.00;99956.47;4886109;29;19996;-86
2022/12/25 10:02:25;;;;;;;;;;;;;;;9.21;100.00;99961.63;4899853;29;19931;-85
2022/12/25 10:04:55;;;;;;;;;;;;;;;9.21;100.00;99951.03;4887954;29;19962;-86
2022/12/25 10:07:22;;;;;;;;;;;;;;;9.22;100.00;99950.91;4886240;29;19930;-86
2022/12/25 10:10:03;;;;;;;;;;;;;;;9.27;99.90;99945.25;4915411;28;19923;-86
2022/12/25 10:12:38;;;;;;;;;;;;;;;9.28;100.00;99928.38;4885812;29;20347;-86
2022/12/25 10:15:23;;;;;;;;;;;;;;;9.31;100.00;99934.28;4920483;29;20002;-86
2022/12/25 10:18:05;;;;;;;;;;;;;;;9.32;100.00;99937.75;4875533;29;19938;-88
2022/12/25 10:20:52;;;;;;;;;;;;;;;9.33;100.00;99929.66;4915887;29;19923;-84
2022/12/25 10:23:27;;;;;;;;;;;;;;;9.34;100.00;99914.63;4874412;29;21104;-84
2022/12/25 10:25:54;;;;;;;;;;;;;;;9.37;100.00;99909.06;4884737;29;19927;-84
2022/12/25 10:28:40;;;;;;;;;;;;;;;9.41;99.87;99909.66;4902265;29;20298;-83
2022/12/25 10:31:18;;;;;;;;;;;;;;;9.41;99.88;99899.88;4890750;29;19927;-83
2022/12/25 10:33:45;;;;;;;;;;;;;;;9.40;99.85;99892.91;4900974;29;20009;-83
2022/12/25 10:36:12;;;;;;;;;;;;;;;9.42;100.00;99883.03;4893280;29;19938;-83
2022/12/25 10:38:39;;;;;;;;;;;;;;;9.44;100.00;99886.41;4916682;29;19923;-83
2022/12/25 10:41:08;;;;;;;;;;;;;;;9.46;100.00;99875.66;4892007;29;19934;-85
2022/12/25 10:43:41;;;;;;;;;;;;;;;9.49;100.00;99880.69;4893940;29;19975;-83
2022/12/25 10:46:11;;;;;;;;;;;;;;;9.50;100.00;99874.44;4902430;29;19927;-83
2022/12/25 10:48:42;;;;;;;;;;;;;;;9.50;100.00;99879.75;4886711;29;19931;-85
2022/12/25 10:51:09;;;;;;;;;;;;;;;9.50;100.00;99880.59;4874456;29;19927;-83
2022/12/25 10:53:36;;;;;;;;;;;;;;;9.49;100.00;99876.25;4899604;29;19923;-84
2022/12/25 10:56:04;;;;;;;;;;;;;;;9.49;100.00;99876.25;4904967;29;19931;-84
2022/12/25 10:58:31;;;;;;;;;;;;;;;9.51;100.00;99873.47;4888282;29;19935;-84
2022/12/25 11:00:59;;;;;;;;;;;;;;;9.54;100.00;99878.50;4918777;29;19927;-83
2022/12/25 11:03:27;;;;;;;;;;;;;;;9.54;100.00;99873.19;4912515;29;19923;-83
2022/12/25 11:05:54;;;;;;;;;;;;;;;9.56;100.00;99871.28;4888285;29;19926;-83
2022/12/25 11:08:21;;;;;;;;;;;;;;;9.56;100.00;99858.84;4871542;29;20398;-83
2022/12/25 11:10:52;;;;;;;;;;;;;;;9.58;100.00;99853.44;4887126;29;20067;-82
2022/12/25 11:13:28;;;;;;;;;;;;;;;9.59;100.00;99855.09;4902200;29;19930;-83
2022/12/25 11:16:14;;;;;;;;;;;;;;;9.62;100.00;99848.72;4870180;29;19927;-83
2022/12/25 11:18:44;;;;;;;;;;;;;;;9.66;100.00;99839.53;4849878;29;19966;-83
2022/12/25 11:21:18;;;;;;;;;;;;;;;9.68;100.00;99833.13;4888272;29;19974;-83
2022/12/25 11:23:46;;;;;;;;;;;;;;;9.73;100.00;99815.00;4916954;28;20371;-83
2022/12/25 11:26:12;;;;;;;;;;;;;;;9.78;100.00;99818.13;4888310;29;19930;-83
2022/12/25 11:28:40;;;;;;;;;;;;;;;9.82;100.00;99812.53;4900095;29;19931;-83
2022/12/25 11:31:08;;;;;;;;;;;;;;;9.83;100.00;99815.06;4874060;29;19962;-83
2022/12/25 11:33:36;;;;;;;;;;;;;;;9.85;100.00;99809.66;4902493;29;19995;-83
2022/12/25 11:36:07;;;;;;;;;;;;;;;9.86;100.00;99806.00;4877805;29;19938;-83
2022/12/25 11:38:33;;;;;;;;;;;;;;;9.86;100.00;99806.00;4895636;29;20355;-83
2022/12/25 11:41:00;;;;;;;;;;;;;;;9.87;100.00;99802.38;4905043;29;20289;-84
2022/12/25 11:43:28;;;;;;;;;;;;;;;9.88;100.00;99809.38;4875555;29;20030;-84
2022/12/25 11:46:02;;;;;;;;;;;;;;;9.93;100.00;99804.53;4901193;29;20339;-84
2022/12/25 11:48:30;;;;;;;;;;;;;;;9.97;100.00;99809.44;4885470;29;19931;-83
2022/12/25 11:50:58;;;;;;;;;;;;;;;10.03;100.00;99807.22;4918312;29;19959;-83
2022/12/25 11:53:39;;;;;;;;;;;;;;;10.04;100.00;99803.59;4885298;29;20357;-84
2022/12/25 11:56:27;;;;;;;;;;;;;;;10.05;100.00;99800.81;4870417;29;20438;-83
2022/12/25 11:58:54;;;;;;;;;;;;;;;10.04;100.00;99790.31;4895471;29;19924;-84
2022/12/25 12:01:34;;;;;;;;;;;;;;;10.04;100.00;99783.19;4888380;29;19927;-83
2022/12/25 12:04:02;;;;;;;;;;;;;;;10.04;100.00;99777.06;4834999;29;20010;-84
2022/12/25 12:06:31;;;;;;;;;;;;;;;10.04;100.00;99779.72;4904252;29;20295;-84
2022/12/25 12:09:05;;;;;;;;;;;;;;;10.05;100.00;99761.03;4916218;29;19927;-84
2022/12/25 12:11:35;;;;;;;;;;;;;;;10.09;100.00;99748.31;4919491;28;20448;-84
2022/12/25 12:14:19;;;;;;;;;;;;;;;10.10;100.00;99747.31;4892147;29;19938;-84
2022/12/25 12:16:46;;;;;;;;;;;;;;;10.08;100.00;99746.66;4873542;29;19933;-83
2022/12/25 12:19:30;;;;;;;;;;;;;;;10.09;100.00;99735.03;4875834;29;19930;-84
2022/12/25 12:21:57;;;;;;;;;;;;;;;10.09;100.00;99727.09;4859643;29;19927;-83
2022/12/25 12:24:27;;;;;;;;;;;;;;;10.08;100.00;99728.91;4890420;29;19926;-84
2022/12/25 12:27:00;;;;;;;;;;;;;;;10.11;100.00;99722.50;4907737;29;20058;-82
2022/12/25 12:29:31;;;;;;;;;;;;;;;10.13;100.00;99726.69;4870061;29;19962;-84
2022/12/25 12:31:59;;;;;;;;;;;;;;;10.16;100.00;99722.91;4904973;29;20695;-83
2022/12/25 12:34:25;;;;;;;;;;;;;;;10.19;100.00;99718.16;4889575;29;21336;-84
2022/12/25 12:36:58;;;;;;;;;;;;;;;10.21;100.00;99718.03;4903991;29;20021;-84
2022/12/25 12:39:25;;;;;;;;;;;;;;;10.23;100.00;99710.78;4877241;29;19927;-84
2022/12/25 12:41:52;;;;;;;;;;;;;;;10.25;100.00;99708.81;4884829;29;19926;-84
2022/12/25 12:44:19;;;;;;;;;;;;;;;10.28;100.00;99707.75;4886639;29;19930;-84
2022/12/25 12:46:53;;;;;;;;;;;;;;;10.30;100.00;99711.94;4885927;29;19933;-83
2022/12/25 12:49:24;;;;;;;;;;;;;;;10.32;100.00;99709.16;4871202;29;20291;-84
2022/12/25 12:52:01;;;;;;;;;;;;;;;10.34;100.00;99713.34;4913675;28;19931;-84
2022/12/25 12:54:27;;;;;;;;;;;;;;;10.35;100.00;99711.53;4899147;29;19928;-84
2022/12/25 12:56:55;;;;;;;;;;;;;;;10.37;100.00;99712.22;4915174;29;19930;-83
2022/12/25 12:59:22;;;;;;;;;;;;;;;10.38;100.00;99711.25;4908641;29;19994;-83
2022/12/25 13:01:49;;;;;;;;;;;;;;;10.38;100.00;99725.38;4908823;28;21333;-83
2022/12/25 13:04:23;;;;;;;;;;;;;;;10.40;100.00;99719.91;4914003;28;19923;-83
2022/12/25 13:06:50;;;;;;;;;;;;;;;10.38;100.00;99713.91;4897031;28;23393;-83
2022/12/25 13:09:16;;;;;;;;;;;;;;;10.38;100.00;99711.25;4916319;29;19929;-84
2022/12/25 13:11:43;;;;;;;;;;;;;;;10.38;100.00;99717.41;4899724;29;20442;-83
2022/12/25 13:14:15;;;;;;;;;;;;;;;10.37;100.00;99714.88;4884093;29;19923;-83
2022/12/25 13:16:43;;;;;;;;;;;;;;;10.37;100.00;99725.50;4869813;29;19986;-83
2022/12/25 13:19:23;;;;;;;;;;;;;;;10.35;100.00;99725.63;4898562;29;19962;-83
2022/12/25 13:21:57;;;;;;;;;;;;;;;10.33;100.00;99719.66;4886387;29;20294;-83
2022/12/25 13:24:25;;;;;;;;;;;;;;;10.31;100.00;99728.72;4885468;29;20005;-83
2022/12/25 13:26:51;;;;;;;;;;;;;;;10.32;100.00;99733.88;4901314;29;20026;-83
2022/12/25 13:29:21;;;;;;;;;;;;;;;10.30;100.00;99729.69;4897019;29;19923;-83
2022/12/25 13:31:48;;;;;;;;;;;;;;;10.29;100.00;99731.50;4901036;29;19981;-83
2022/12/25 13:34:19;;;;;;;;;;;;;;;10.27;100.00;99736.06;4900893;29;20348;-84
2022/12/25 13:36:46;;;;;;;;;;;;;;;10.26;100.00;99730.91;4887174;29;20005;-83
2022/12/25 13:39:14;;;;;;;;;;;;;;;10.25;100.00;99723.91;4900661;29;19930;-83
2022/12/25 13:42:05;;;;;;;;;;;;;;;10.24;100.00;99723.06;4917186;29;19962;-84
2022/12/25 13:44:38;;;;;;;;;;;;;;;10.22;100.00;99731.16;4850496;29;20006;-83
2022/12/25 13:47:15;;;;;;;;;;;;;;;10.22;100.00;99736.47;4885387;29;19927;-84
2022/12/25 13:49:41;;;;;;;;;;;;;;;10.24;100.00;99732.84;4901757;29;19931;-83
2022/12/25 13:52:09;;;;;;;;;;;;;;;10.21;100.00;99734.81;4916361;29;19938;-83
2022/12/25 13:54:35;;;;;;;;;;;;;;;10.22;100.00;99728.50;4922466;28;19939;-84
2022/12/25 13:57:02;;;;;;;;;;;;;;;10.22;100.00;99719.72;4903299;29;20434;-84
2022/12/25 13:59:28;;;;;;;;;;;;;;;10.22;100.00;99717.88;4875064;29;19983;-84
2022/12/25 14:01:56;;;;;;;;;;;;;;;10.21;100.00;99708.25;4919160;29;19931;-83
2022/12/25 14:04:23;;;;;;;;;;;;;;;10.21;100.00;99697.66;4890583;29;19923;-84
2022/12/25 14:06:50;;;;;;;;;;;;;;;10.21;100.00;99687.03;4919123;28;20338;-83
2022/12/25 14:09:16;;;;;;;;;;;;;;;10.22;100.00;99679.91;4871946;29;19970;-84
2022/12/25 14:11:44;;;;;;;;;;;;;;;10.22;100.00;99679.91;4904737;29;19923;-84
2022/12/25 14:14:18;;;;;;;;;;;;;;;10.21;100.00;99687.03;4877732;29;21450;-83
2022/12/25 14:16:47;;;;;;;;;;;;;;;10.21;100.00;99695.00;4902472;29;19935;-84
2022/12/25 14:19:30;;;;;;;;;;;;;;;10.22;100.00;99687.88;4901457;29;20379;-83
2022/12/25 14:22:03;;;;;;;;;;;;;;;10.23;100.00;99692.22;4887856;29;20010;-84
2022/12/25 14:24:30;;;;;;;;;;;;;;;10.22;100.00;99694.00;4900638;29;20370;-83
2022/12/25 14:27:12;;;;;;;;;;;;;;;10.22;100.00;99690.53;4909634;29;19946;-84
2022/12/25 14:29:40;;;;;;;;;;;;;;;10.22;100.00;99686.06;4856525;29;20347;-84